Terminal Aerodrome Forecast
Issued by NWS Wichita, KS

Home | Current Version | Previous Version | Graphics & Text | Print | Product List | Glossary On
Versions: 1 2 3 4 5 6 7 8 9 10 11 12 13
235
FTUS43 KICT 222330
TAFICT
TAF
KICT 222330Z 2300/2324 15010KT P6SM FEW200
     FM230900 35010KT P6SM VCSH BKN150
     FM231100 02017G24KT P6SM VCSH BKN040
     FM231700 01016G23KT P6SM SCT150=

USA.gov is the U.S. government's official web portal to all federal, state and local government web resources and services.